sensor_id;sensor_type;location;lat;lon;timestamp;temperature;humidity
10278;DHT22;5184;51.376;7.148;2023-04-06T00:02:16;0.30;1.00
10278;DHT22;5184;51.376;7.148;2023-04-06T00:04:43;0.30;1.00
10278;DHT22;5184;51.376;7.148;2023-04-06T00:07:10;0.30;1.00
10278;DHT22;5184;51.376;7.148;2023-04-06T00:09:37;0.20;1.00
10278;DHT22;5184;51.376;7.148;2023-04-06T00:12:04;0.20;1.00
10278;DHT22;5184;51.376;7.148;2023-04-06T00:14:31;0.20;1.00
10278;DHT22;5184;51.376;7.148;2023-04-06T00:16:59;0.20;1.00
10278;DHT22;5184;51.376;7.148;2023-04-06T00:19:26;0.10;1.00
10278;DHT22;5184;51.376;7.148;2023-04-06T00:21:54;0.10;1.00
10278;DHT22;5184;51.376;7.148;2023-04-06T00:24:20;0.10;1.00
10278;DHT22;5184;51.376;7.148;2023-04-06T00:26:47;0.10;1.00
10278;DHT22;5184;51.376;7.148;2023-04-06T00:29:13;0.00;1.00
10278;DHT22;5184;51.376;7.148;2023-04-06T00:31:40;0.00;1.00
10278;DHT22;5184;51.376;7.148;2023-04-06T00:34:06;0.00;1.00
10278;DHT22;5184;51.376;7.148;2023-04-06T00:36:33;-0.10;1.00
10278;DHT22;5184;51.376;7.148;2023-04-06T00:39:00;-0.10;1.00
10278;DHT22;5184;51.376;7.148;2023-04-06T00:41:27;-0.10;1.00
10278;DHT22;5184;51.376;7.148;2023-04-06T00:43:54;-0.20;1.00
10278;DHT22;5184;51.376;7.148;2023-04-06T00:46:21;-0.20;1.00
10278;DHT22;5184;51.376;7.148;2023-04-06T00:48:48;-0.20;1.00
10278;DHT22;5184;51.376;7.148;2023-04-06T00:51:14;-0.30;1.00
10278;DHT22;5184;51.376;7.148;2023-04-06T00:53:42;-0.30;1.00
10278;DHT22;5184;51.376;7.148;2023-04-06T00:56:09;-0.30;1.00
10278;DHT22;5184;51.376;7.148;2023-04-06T00:58:36;-0.30;22.80
10278;DHT22;5184;51.376;7.148;2023-04-06T01:01:03;-0.30;28.90
10278;DHT22;5184;51.376;7.148;2023-04-06T01:03:30;-0.30;18.50
10278;DHT22;5184;51.376;7.148;2023-04-06T01:05:58;-0.30;42.00
10278;DHT22;5184;51.376;7.148;2023-04-06T01:08:24;-0.30;27.00
10278;DHT22;5184;51.376;7.148;2023-04-06T01:10:51;-0.30;19.20
10278;DHT22;5184;51.376;7.148;2023-04-06T01:13:17;-0.30;3.90
10278;DHT22;5184;51.376;7.148;2023-04-06T01:15:45;-0.30;1.00
10278;DHT22;5184;51.376;7.148;2023-04-06T01:18:12;-0.40;1.00
10278;DHT22;5184;51.376;7.148;2023-04-06T01:20:39;-0.40;1.00
10278;DHT22;5184;51.376;7.148;2023-04-06T01:23:06;-0.40;22.00
10278;DHT22;5184;51.376;7.148;2023-04-06T01:25:33;-0.40;65.00
10278;DHT22;5184;51.376;7.148;2023-04-06T01:28:01;-0.40;99.90
10278;DHT22;5184;51.376;7.148;2023-04-06T01:30:27;-0.40;99.90
10278;DHT22;5184;51.376;7.148;2023-04-06T01:32:55;-0.30;99.90
10278;DHT22;5184;51.376;7.148;2023-04-06T01:35:21;-0.40;97.10
10278;DHT22;5184;51.376;7.148;2023-04-06T01:37:50;-0.40;84.50
10278;DHT22;5184;51.376;7.148;2023-04-06T01:40:17;-0.30;99.90
10278;DHT22;5184;51.376;7.148;2023-04-06T01:42:44;-0.40;26.50
10278;DHT22;5184;51.376;7.148;2023-04-06T01:45:11;-0.40;19.90
10278;DHT22;5184;51.376;7.148;2023-04-06T01:47:38;-0.40;93.60
10278;DHT22;5184;51.376;7.148;2023-04-06T01:50:06;-0.40;68.50
10278;DHT22;5184;51.376;7.148;2023-04-06T01:52:33;-0.40;56.20
10278;DHT22;5184;51.376;7.148;2023-04-06T01:54:59;-0.40;98.40
10278;DHT22;5184;51.376;7.148;2023-04-06T01:57:26;-0.40;96.30
10278;DHT22;5184;51.376;7.148;2023-04-06T01:59:52;-0.40;98.90
10278;DHT22;5184;51.376;7.148;2023-04-06T02:02:20;-0.40;99.90
10278;DHT22;5184;51.376;7.148;2023-04-06T02:04:46;-0.50;99.90
10278;DHT22;5184;51.376;7.148;2023-04-06T02:07:13;-0.40;99.90
10278;DHT22;5184;51.376;7.148;2023-04-06T02:09:39;-0.40;99.90
10278;DHT22;5184;51.376;7.148;2023-04-06T02:12:07;-0.50;99.90
10278;DHT22;5184;51.376;7.148;2023-04-06T02:14:34;-0.50;96.60
10278;DHT22;5184;51.376;7.148;2023-04-06T02:17:01;-0.50;92.30
10278;DHT22;5184;51.376;7.148;2023-04-06T02:19:27;-0.50;99.90
10278;DHT22;5184;51.376;7.148;2023-04-06T02:21:54;-0.50;99.90
10278;DHT22;5184;51.376;7.148;2023-04-06T02:24:21;-0.60;99.90
10278;DHT22;5184;51.376;7.148;2023-04-06T02:26:48;-0.60;99.90
10278;DHT22;5184;51.376;7.148;2023-04-06T02:29:15;-0.60;99.90
10278;DHT22;5184;51.376;7.148;2023-04-06T02:31:42;-0.60;99.90
10278;DHT22;5184;51.376;7.148;2023-04-06T02:34:09;-0.60;99.90
10278;DHT22;5184;51.376;7.148;2023-04-06T02:36:36;-0.60;99.90
10278;DHT22;5184;51.376;7.148;2023-04-06T02:39:03;-0.60;99.90
10278;DHT22;5184;51.376;7.148;2023-04-06T02:41:30;-0.60;99.90
10278;DHT22;5184;51.376;7.148;2023-04-06T02:43:56;-0.60;99.90
10278;DHT22;5184;51.376;7.148;2023-04-06T02:46:23;-0.60;99.90
10278;DHT22;5184;51.376;7.148;2023-04-06T02:48:50;-0.60;99.90
10278;DHT22;5184;51.376;7.148;2023-04-06T02:51:16;-0.70;99.90
10278;DHT22;5184;51.376;7.148;2023-04-06T02:53:43;-0.70;99.90
10278;DHT22;5184;51.376;7.148;2023-04-06T02:56:10;-0.70;99.90
10278;DHT22;5184;51.376;7.148;2023-04-06T02:58:37;-0.80;99.90
10278;DHT22;5184;51.376;7.148;2023-04-06T03:01:03;-0.80;1.00
10278;DHT22;5184;51.376;7.148;2023-04-06T03:03:30;-0.80;1.00
10278;DHT22;5184;51.376;7.148;2023-04-06T03:05:57;-0.60;1.00
10278;DHT22;5184;51.376;7.148;2023-04-06T03:08:25;-0.80;1.00
10278;DHT22;5184;51.376;7.148;2023-04-06T03:10:51;-0.80;1.00
10278;DHT22;5184;51.376;7.148;2023-04-06T03:13:18;-0.80;1.00
10278;DHT22;5184;51.376;7.148;2023-04-06T03:15:45;-0.80;1.00
10278;DHT22;5184;51.376;7.148;2023-04-06T03:18:11;-0.80;1.00
10278;DHT22;5184;51.376;7.148;2023-04-06T03:20:38;-0.90;1.00
10278;DHT22;5184;51.376;7.148;2023-04-06T03:23:05;-0.90;1.00
10278;DHT22;5184;51.376;7.148;2023-04-06T03:25:32;-0.90;1.00
10278;DHT22;5184;51.376;7.148;2023-04-06T03:27:58;-0.90;1.00
10278;DHT22;5184;51.376;7.148;2023-04-06T03:30:25;-0.90;1.00
10278;DHT22;5184;51.376;7.148;2023-04-06T03:32:52;-1.00;1.00
10278;DHT22;5184;51.376;7.148;2023-04-06T03:35:20;-1.00;1.00
10278;DHT22;5184;51.376;7.148;2023-04-06T03:37:47;-1.00;1.00
10278;DHT22;5184;51.376;7.148;2023-04-06T03:40:14;-1.00;1.00
10278;DHT22;5184;51.376;7.148;2023-04-06T03:42:40;-1.00;1.00
10278;DHT22;5184;51.376;7.148;2023-04-06T03:45:07;-1.00;1.00
10278;DHT22;5184;51.376;7.148;2023-04-06T03:47:34;-1.00;1.00
10278;DHT22;5184;51.376;7.148;2023-04-06T03:50:01;-1.10;1.00
10278;DHT22;5184;51.376;7.148;2023-04-06T03:52:28;-1.10;1.00
10278;DHT22;5184;51.376;7.148;2023-04-06T03:54:54;-1.10;1.00
10278;DHT22;5184;51.376;7.148;2023-04-06T03:57:21;-1.10;1.00
10278;DHT22;5184;51.376;7.148;2023-04-06T03:59:48;-1.10;1.90
10278;DHT22;5184;51.376;7.148;2023-04-06T04:02:16;-1.10;1.00
10278;DHT22;5184;51.376;7.148;2023-04-06T04:04:43;-1.10;19.60
10278;DHT22;5184;51.376;7.148;2023-04-06T04:07:10;-1.10;13.20
10278;DHT22;5184;51.376;7.148;2023-04-06T04:09:38;-1.10;39.60
10278;DHT22;5184;51.376;7.148;2023-04-06T04:12:06;-1.20;23.10
10278;DHT22;5184;51.376;7.148;2023-04-06T04:14:32;-1.20;19.40
10278;DHT22;5184;51.376;7.148;2023-04-06T04:16:59;-1.20;68.60
10278;DHT22;5184;51.376;7.148;2023-04-06T04:19:26;-1.20;99.90
10278;DHT22;5184;51.376;7.148;2023-04-06T04:21:53;-1.20;99.90
10278;DHT22;5184;51.376;7.148;2023-04-06T04:24:19;-1.20;99.90
10278;DHT22;5184;51.376;7.148;2023-04-06T04:26:47;-1.20;99.90
10278;DHT22;5184;51.376;7.148;2023-04-06T04:29:13;-1.30;99.90
10278;DHT22;5184;51.376;7.148;2023-04-06T04:31:40;-1.30;99.90
10278;DHT22;5184;51.376;7.148;2023-04-06T04:34:07;-1.30;99.90
10278;DHT22;5184;51.376;7.148;2023-04-06T04:36:33;-1.30;99.90
10278;DHT22;5184;51.376;7.148;2023-04-06T04:39:00;-1.30;99.90
10278;DHT22;5184;51.376;7.148;2023-04-06T04:41:27;-1.30;99.90
10278;DHT22;5184;51.376;7.148;2023-04-06T04:43:55;-1.30;99.90
10278;DHT22;5184;51.376;7.148;2023-04-06T04:46:21;-1.30;99.90
10278;DHT22;5184;51.376;7.148;2023-04-06T04:48:48;-1.30;99.90
10278;DHT22;5184;51.376;7.148;2023-04-06T04:51:15;-1.30;99.90
10278;DHT22;5184;51.376;7.148;2023-04-06T04:53:42;-1.30;99.90
10278;DHT22;5184;51.376;7.148;2023-04-06T04:56:08;-1.30;99.90
10278;DHT22;5184;51.376;7.148;2023-04-06T04:58:35;-1.30;99.90
10278;DHT22;5184;51.376;7.148;2023-04-06T05:01:02;-1.30;99.90
10278;DHT22;5184;51.376;7.148;2023-04-06T05:03:29;-1.30;99.90
10278;DHT22;5184;51.376;7.148;2023-04-06T05:05:55;-1.30;99.90
10278;DHT22;5184;51.376;7.148;2023-04-06T05:08:22;-1.30;99.90
10278;DHT22;5184;51.376;7.148;2023-04-06T05:10:49;-1.20;99.90
10278;DHT22;5184;51.376;7.148;2023-04-06T05:13:15;-1.20;99.90
10278;DHT22;5184;51.376;7.148;2023-04-06T05:15:42;-1.20;99.90
10278;DHT22;5184;51.376;7.148;2023-04-06T05:18:09;-1.10;99.90
10278;DHT22;5184;51.376;7.148;2023-04-06T05:20:36;-1.10;99.90
10278;DHT22;5184;51.376;7.148;2023-04-06T05:23:02;-1.10;99.90
10278;DHT22;5184;51.376;7.148;2023-04-06T05:25:29;-1.10;99.90
10278;DHT22;5184;51.376;7.148;2023-04-06T05:27:56;-0.60;99.90
10278;DHT22;5184;51.376;7.148;2023-04-06T05:30:22;-0.50;1.00
10278;DHT22;5184;51.376;7.148;2023-04-06T05:32:49;-0.50;1.00
10278;DHT22;5184;51.376;7.148;2023-04-06T05:35:15;-0.60;99.90
10278;DHT22;5184;51.376;7.148;2023-04-06T05:37:42;-0.60;99.90
10278;DHT22;5184;51.376;7.148;2023-04-06T05:40:09;-0.60;99.90
10278;DHT22;5184;51.376;7.148;2023-04-06T05:42:37;-0.60;99.90
10278;DHT22;5184;51.376;7.148;2023-04-06T05:45:07;-0.60;99.90
10278;DHT22;5184;51.376;7.148;2023-04-06T05:47:34;-0.60;99.90
10278;DHT22;5184;51.376;7.148;2023-04-06T05:50:00;-0.60;99.90
10278;DHT22;5184;51.376;7.148;2023-04-06T05:52:27;-0.60;99.90
10278;DHT22;5184;51.376;7.148;2023-04-06T05:54:54;-0.50;99.90
10278;DHT22;5184;51.376;7.148;2023-04-06T05:57:21;-0.50;99.90
10278;DHT22;5184;51.376;7.148;2023-04-06T05:59:48;-0.40;99.90
10278;DHT22;5184;51.376;7.148;2023-04-06T06:02:15;-0.40;99.90
10278;DHT22;5184;51.376;7.148;2023-04-06T06:04:41;-0.30;99.90
10278;DHT22;5184;51.376;7.148;2023-04-06T06:07:09;-0.30;99.90
10278;DHT22;5184;51.376;7.148;2023-04-06T06:09:36;-0.20;4.80
10278;DHT22;5184;51.376;7.148;2023-04-06T06:12:03;-0.10;1.00
10278;DHT22;5184;51.376;7.148;2023-04-06T06:14:30;-0.10;1.00
10278;DHT22;5184;51.376;7.148;2023-04-06T06:16:56;-0.10;1.00
10278;DHT22;5184;51.376;7.148;2023-04-06T06:19:24;0.00;1.00
10278;DHT22;5184;51.376;7.148;2023-04-06T06:21:51;0.00;1.00
10278;DHT22;5184;51.376;7.148;2023-04-06T06:24:18;0.10;1.00
10278;DHT22;5184;51.376;7.148;2023-04-06T06:26:45;0.20;99.90
10278;DHT22;5184;51.376;7.148;2023-04-06T06:29:12;0.30;1.00
10278;DHT22;5184;51.376;7.148;2023-04-06T06:31:40;0.40;99.90
10278;DHT22;5184;51.376;7.148;2023-04-06T06:34:07;0.40;99.90
10278;DHT22;5184;51.376;7.148;2023-04-06T06:36:34;0.40;99.90
10278;DHT22;5184;51.376;7.148;2023-04-06T06:39:00;0.50;99.90
10278;DHT22;5184;51.376;7.148;2023-04-06T06:41:27;0.60;99.90
10278;DHT22;5184;51.376;7.148;2023-04-06T06:43:53;0.70;99.90
10278;DHT22;5184;51.376;7.148;2023-04-06T06:46:20;0.70;99.90
10278;DHT22;5184;51.376;7.148;2023-04-06T06:48:47;0.80;99.90
10278;DHT22;5184;51.376;7.148;2023-04-06T06:51:13;0.90;63.40
10278;DHT22;5184;51.376;7.148;2023-04-06T06:53:40;1.00;5.20
10278;DHT22;5184;51.376;7.148;2023-04-06T06:56:06;1.10;1.00
10278;DHT22;5184;51.376;7.148;2023-04-06T06:58:33;1.20;1.00
10278;DHT22;5184;51.376;7.148;2023-04-06T07:00:59;1.30;1.00
10278;DHT22;5184;51.376;7.148;2023-04-06T07:03:26;1.50;1.00
10278;DHT22;5184;51.376;7.148;2023-04-06T07:05:53;1.90;1.00
10278;DHT22;5184;51.376;7.148;2023-04-06T07:08:21;2.20;1.00
10278;DHT22;5184;51.376;7.148;2023-04-06T07:10:48;2.10;1.00
10278;DHT22;5184;51.376;7.148;2023-04-06T07:13:14;2.50;99.90
10278;DHT22;5184;51.376;7.148;2023-04-06T07:15:41;3.10;99.90
10278;DHT22;5184;51.376;7.148;2023-04-06T07:18:09;3.40;99.90
10278;DHT22;5184;51.376;7.148;2023-04-06T07:20:35;3.40;99.90
10278;DHT22;5184;51.376;7.148;2023-04-06T07:23:02;3.70;99.90
10278;DHT22;5184;51.376;7.148;2023-04-06T07:25:29;4.00;1.00
10278;DHT22;5184;51.376;7.148;2023-04-06T07:27:55;4.20;1.00
10278;DHT22;5184;51.376;7.148;2023-04-06T07:30:22;4.30;1.00
10278;DHT22;5184;51.376;7.148;2023-04-06T07:32:49;4.60;1.00
10278;DHT22;5184;51.376;7.148;2023-04-06T07:35:16;4.60;1.00
10278;DHT22;5184;51.376;7.148;2023-04-06T07:37:44;4.70;1.00
10278;DHT22;5184;51.376;7.148;2023-04-06T07:40:11;4.90;99.90
10278;DHT22;5184;51.376;7.148;2023-04-06T07:42:38;5.00;99.90
10278;DHT22;5184;51.376;7.148;2023-04-06T07:45:06;5.10;99.90
10278;DHT22;5184;51.376;7.148;2023-04-06T07:47:33;5.10;99.90
10278;DHT22;5184;51.376;7.148;2023-04-06T07:50:00;5.40;99.90
10278;DHT22;5184;51.376;7.148;2023-04-06T07:52:28;5.50;99.90
10278;DHT22;5184;51.376;7.148;2023-04-06T07:54:54;5.50;99.90
10278;DHT22;5184;51.376;7.148;2023-04-06T07:57:21;5.70;99.90
10278;DHT22;5184;51.376;7.148;2023-04-06T07:59:48;6.10;99.90
10278;DHT22;5184;51.376;7.148;2023-04-06T08:02:16;6.30;99.90
10278;DHT22;5184;51.376;7.148;2023-04-06T08:04:43;6.40;99.90
10278;DHT22;5184;51.376;7.148;2023-04-06T08:07:10;6.70;25.20
10278;DHT22;5184;51.376;7.148;2023-04-06T08:09:37;6.70;22.90
10278;DHT22;5184;51.376;7.148;2023-04-06T08:12:04;6.90;1.00
10278;DHT22;5184;51.376;7.148;2023-04-06T08:14:30;7.20;1.00
10278;DHT22;5184;51.376;7.148;2023-04-06T08:16:57;7.40;1.00
10278;DHT22;5184;51.376;7.148;2023-04-06T08:19:23;7.60;1.00
10278;DHT22;5184;51.376;7.148;2023-04-06T08:21:50;7.70;1.00
10278;DHT22;5184;51.376;7.148;2023-04-06T08:24:16;7.90;1.00
10278;DHT22;5184;51.376;7.148;2023-04-06T08:26:43;8.10;1.00
10278;DHT22;5184;51.376;7.148;2023-04-06T08:29:10;8.10;1.00
10278;DHT22;5184;51.376;7.148;2023-04-06T08:31:36;8.20;99.90
10278;DHT22;5184;51.376;7.148;2023-04-06T08:34:03;8.30;99.90
10278;DHT22;5184;51.376;7.148;2023-04-06T08:36:30;8.50;99.90
10278;DHT22;5184;51.376;7.148;2023-04-06T08:38:56;8.70;99.90
10278;DHT22;5184;51.376;7.148;2023-04-06T08:41:23;8.70;99.90
10278;DHT22;5184;51.376;7.148;2023-04-06T08:43:51;8.80;99.90
10278;DHT22;5184;51.376;7.148;2023-04-06T08:46:16;9.00;99.90
10278;DHT22;5184;51.376;7.148;2023-04-06T08:48:43;9.20;99.90
10278;DHT22;5184;51.376;7.148;2023-04-06T08:51:11;9.20;99.90
10278;DHT22;5184;51.376;7.148;2023-04-06T08:53:38;9.30;99.90
10278;DHT22;5184;51.376;7.148;2023-04-06T08:56:05;9.40;99.90
10278;DHT22;5184;51.376;7.148;2023-04-06T08:58:34;9.40;99.90
10278;DHT22;5184;51.376;7.148;2023-04-06T09:00:59;9.60;99.90
10278;DHT22;5184;51.376;7.148;2023-04-06T09:03:27;9.60;99.90
10278;DHT22;5184;51.376;7.148;2023-04-06T09:05:53;9.70;99.90
10278;DHT22;5184;51.376;7.148;2023-04-06T09:08:20;9.80;99.90
10278;DHT22;5184;51.376;7.148;2023-04-06T09:10:47;9.80;99.90
10278;DHT22;5184;51.376;7.148;2023-04-06T09:13:14;9.70;99.90
10278;DHT22;5184;51.376;7.148;2023-04-06T09:15:41;9.90;99.90
10278;DHT22;5184;51.376;7.148;2023-04-06T09:18:09;10.00;99.90
10278;DHT22;5184;51.376;7.148;2023-04-06T09:20:37;10.10;99.90
10278;DHT22;5184;51.376;7.148;2023-04-06T09:23:03;10.10;99.90
10278;DHT22;5184;51.376;7.148;2023-04-06T09:25:30;10.10;99.90
10278;DHT22;5184;51.376;7.148;2023-04-06T09:27:59;10.20;99.90
10278;DHT22;5184;51.376;7.148;2023-04-06T09:30:25;10.20;99.90
10278;DHT22;5184;51.376;7.148;2023-04-06T09:32:52;10.30;99.90
10278;DHT22;5184;51.376;7.148;2023-04-06T09:35:18;10.30;99.90
10278;DHT22;5184;51.376;7.148;2023-04-06T09:37:47;10.50;99.90
10278;DHT22;5184;51.376;7.148;2023-04-06T09:40:14;10.60;99.90
10278;DHT22;5184;51.376;7.148;2023-04-06T09:42:41;10.80;99.90
10278;DHT22;5184;51.376;7.148;2023-04-06T09:45:08;11.00;99.90
10278;DHT22;5184;51.376;7.148;2023-04-06T09:47:36;11.10;99.90
10278;DHT22;5184;51.376;7.148;2023-04-06T09:50:02;11.10;99.90
10278;DHT22;5184;51.376;7.148;2023-04-06T09:52:32;11.20;99.90
10278;DHT22;5184;51.376;7.148;2023-04-06T09:55:02;11.50;99.90
10278;DHT22;5184;51.376;7.148;2023-04-06T09:57:28;11.50;99.90
10278;DHT22;5184;51.376;7.148;2023-04-06T10:00:02;11.60;99.90
10278;DHT22;5184;51.376;7.148;2023-04-06T10:02:39;11.60;99.90
10278;DHT22;5184;51.376;7.148;2023-04-06T10:05:16;11.60;99.90
10278;DHT22;5184;51.376;7.148;2023-04-06T10:07:39;11.70;99.90
10278;DHT22;5184;51.376;7.148;2023-04-06T10:10:06;11.70;99.90
10278;DHT22;5184;51.376;7.148;2023-04-06T10:12:34;11.80;99.90
10278;DHT22;5184;51.376;7.148;2023-04-06T10:15:00;11.70;99.90
10278;DHT22;5184;51.376;7.148;2023-04-06T10:17:27;11.80;99.90
10278;DHT22;5184;51.376;7.148;2023-04-06T10:19:55;11.80;99.90
10278;DHT22;5184;51.376;7.148;2023-04-06T10:22:24;11.80;99.90
10278;DHT22;5184;51.376;7.148;2023-04-06T10:24:49;11.80;99.90
10278;DHT22;5184;51.376;7.148;2023-04-06T10:27:16;11.90;99.90
10278;DHT22;5184;51.376;7.148;2023-04-06T10:29:45;12.00;99.90
10278;DHT22;5184;51.376;7.148;2023-04-06T10:32:11;11.90;99.90
10278;DHT22;5184;51.376;7.148;2023-04-06T10:34:38;12.10;99.90
10278;DHT22;5184;51.376;7.148;2023-04-06T10:37:12;12.40;99.90
10278;DHT22;5184;51.376;7.148;2023-04-06T10:39:45;12.30;99.90
10278;DHT22;5184;51.376;7.148;2023-04-06T10:42:06;12.50;99.90
10278;DHT22;5184;51.376;7.148;2023-04-06T10:44:30;12.60;99.90
10278;DHT22;5184;51.376;7.148;2023-04-06T10:46:58;12.40;99.90
10278;DHT22;5184;51.376;7.148;2023-04-06T10:49:24;12.40;99.90
10278;DHT22;5184;51.376;7.148;2023-04-06T10:51:51;12.40;99.90
10278;DHT22;5184;51.376;7.148;2023-04-06T10:54:19;12.50;99.90
10278;DHT22;5184;51.376;7.148;2023-04-06T10:56:45;12.50;99.90
10278;DHT22;5184;51.376;7.148;2023-04-06T10:59:11;12.50;99.90
10278;DHT22;5184;51.376;7.148;2023-04-06T11:01:38;12.60;99.90
10278;DHT22;5184;51.376;7.148;2023-04-06T11:04:05;12.70;99.90
10278;DHT22;5184;51.376;7.148;2023-04-06T11:06:33;12.70;99.90
10278;DHT22;5184;51.376;7.148;2023-04-06T11:08:59;12.90;99.90
10278;DHT22;5184;51.376;7.148;2023-04-06T11:11:26;12.90;99.90
10278;DHT22;5184;51.376;7.148;2023-04-06T11:13:55;13.10;99.90
10278;DHT22;5184;51.376;7.148;2023-04-06T11:16:30;13.10;99.90
10278;DHT22;5184;51.376;7.148;2023-04-06T11:18:59;13.20;99.90
10278;DHT22;5184;51.376;7.148;2023-04-06T11:21:33;13.40;99.90
10278;DHT22;5184;51.376;7.148;2023-04-06T11:24:18;13.40;99.90
10278;DHT22;5184;51.376;7.148;2023-04-06T11:26:49;13.50;99.90
10278;DHT22;5184;51.376;7.148;2023-04-06T11:29:16;13.60;99.90
10278;DHT22;5184;51.376;7.148;2023-04-06T11:31:46;13.60;99.90
10278;DHT22;5184;51.376;7.148;2023-04-06T11:34:12;13.50;99.90
10278;DHT22;5184;51.376;7.148;2023-04-06T11:36:40;13.30;99.90
10278;DHT22;5184;51.376;7.148;2023-04-06T11:39:06;13.20;99.90
10278;DHT22;5184;51.376;7.148;2023-04-06T11:44:04;13.50;99.90
10278;DHT22;5184;51.376;7.148;2023-04-06T11:46:31;13.30;99.90
10278;DHT22;5184;51.376;7.148;2023-04-06T11:48:59;13.30;99.90
10278;DHT22;5184;51.376;7.148;2023-04-06T11:51:25;13.00;99.90
10278;DHT22;5184;51.376;7.148;2023-04-06T11:53:52;13.00;99.90
10278;DHT22;5184;51.376;7.148;2023-04-06T11:56:25;13.10;99.90
10278;DHT22;5184;51.376;7.148;2023-04-06T11:58:51;13.20;99.90
10278;DHT22;5184;51.376;7.148;2023-04-06T12:01:17;13.40;99.90
10278;DHT22;5184;51.376;7.148;2023-04-06T12:03:45;13.40;99.90
10278;DHT22;5184;51.376;7.148;2023-04-06T12:06:11;13.30;99.90
10278;DHT22;5184;51.376;7.148;2023-04-06T12:08:38;13.40;99.90
10278;DHT22;5184;51.376;7.148;2023-04-06T12:11:04;13.50;99.90
10278;DHT22;5184;51.376;7.148;2023-04-06T12:13:32;13.60;99.90
10278;DHT22;5184;51.376;7.148;2023-04-06T12:15:59;13.60;99.90
10278;DHT22;5184;51.376;7.148;2023-04-06T12:18:26;13.60;99.90
10278;DHT22;5184;51.376;7.148;2023-04-06T12:20:52;13.80;99.90
10278;DHT22;5184;51.376;7.148;2023-04-06T12:23:19;13.90;99.90
10278;DHT22;5184;51.376;7.148;2023-04-06T12:25:46;13.90;99.90
10278;DHT22;5184;51.376;7.148;2023-04-06T12:28:13;13.70;99.90
10278;DHT22;5184;51.376;7.148;2023-04-06T12:30:40;13.60;99.90
10278;DHT22;5184;51.376;7.148;2023-04-06T12:33:07;13.80;99.90
10278;DHT22;5184;51.376;7.148;2023-04-06T12:35:34;13.80;99.90
10278;DHT22;5184;51.376;7.148;2023-04-06T12:38:00;13.70;99.90
10278;DHT22;5184;51.376;7.148;2023-04-06T12:40:27;13.70;99.90
10278;DHT22;5184;51.376;7.148;2023-04-06T12:42:54;13.30;99.90
10278;DHT22;5184;51.376;7.148;2023-04-06T12:45:21;13.20;99.90
10278;DHT22;5184;51.376;7.148;2023-04-06T12:47:49;13.00;99.90
10278;DHT22;5184;51.376;7.148;2023-04-06T12:50:16;13.00;99.90
10278;DHT22;5184;51.376;7.148;2023-04-06T12:52:43;13.00;99.90
10278;DHT22;5184;51.376;7.148;2023-04-06T12:55:10;12.90;99.90
10278;DHT22;5184;51.376;7.148;2023-04-06T12:57:38;12.80;99.90
10278;DHT22;5184;51.376;7.148;2023-04-06T13:00:05;12.80;99.90
10278;DHT22;5184;51.376;7.148;2023-04-06T13:02:32;12.80;99.90
10278;DHT22;5184;51.376;7.148;2023-04-06T13:04:59;13.00;99.90
10278;DHT22;5184;51.376;7.148;2023-04-06T13:07:26;13.00;99.90
10278;DHT22;5184;51.376;7.148;2023-04-06T13:09:53;12.90;99.90
10278;DHT22;5184;51.376;7.148;2023-04-06T13:12:19;12.90;99.90
10278;DHT22;5184;51.376;7.148;2023-04-06T13:14:47;12.90;99.90
10278;DHT22;5184;51.376;7.148;2023-04-06T13:17:13;12.90;99.90
10278;DHT22;5184;51.376;7.148;2023-04-06T13:19:40;12.80;99.90
10278;DHT22;5184;51.376;7.148;2023-04-06T13:22:08;12.90;99.90
10278;DHT22;5184;51.376;7.148;2023-04-06T13:24:35;12.80;99.90
10278;DHT22;5184;51.376;7.148;2023-04-06T13:27:02;12.80;99.90
10278;DHT22;5184;51.376;7.148;2023-04-06T13:29:29;12.90;99.90
10278;DHT22;5184;51.376;7.148;2023-04-06T13:31:56;12.80;99.90
10278;DHT22;5184;51.376;7.148;2023-04-06T13:34:22;12.80;99.90
10278;DHT22;5184;51.376;7.148;2023-04-06T13:36:49;12.80;99.90
10278;DHT22;5184;51.376;7.148;2023-04-06T13:39:16;12.80;99.90
10278;DHT22;5184;51.376;7.148;2023-04-06T13:41:43;12.80;99.90
10278;DHT22;5184;51.376;7.148;2023-04-06T13:44:10;12.90;99.90
10278;DHT22;5184;51.376;7.148;2023-04-06T13:46:37;12.80;99.90
10278;DHT22;5184;51.376;7.148;2023-04-06T13:49:03;12.90;99.90
10278;DHT22;5184;51.376;7.148;2023-04-06T13:51:30;12.90;99.90
10278;DHT22;5184;51.376;7.148;2023-04-06T13:53:57;12.90;99.90
10278;DHT22;5184;51.376;7.148;2023-04-06T13:56:23;12.90;99.90
10278;DHT22;5184;51.376;7.148;2023-04-06T13:58:53;12.80;99.90
10278;DHT22;5184;51.376;7.148;2023-04-06T14:01:17;12.80;99.90
10278;DHT22;5184;51.376;7.148;2023-04-06T14:03:45;12.60;99.90
10278;DHT22;5184;51.376;7.148;2023-04-06T14:06:11;12.60;99.90
10278;DHT22;5184;51.376;7.148;2023-04-06T14:08:38;12.40;99.90
10278;DHT22;5184;51.376;7.148;2023-04-06T14:11:04;12.20;99.90
10278;DHT22;5184;51.376;7.148;2023-04-06T14:13:32;12.10;99.90
10278;DHT22;5184;51.376;7.148;2023-04-06T14:15:59;12.10;99.90
10278;DHT22;5184;51.376;7.148;2023-04-06T14:18:26;12.10;99.90
10278;DHT22;5184;51.376;7.148;2023-04-06T14:20:54;12.00;99.90
10278;DHT22;5184;51.376;7.148;2023-04-06T14:23:20;11.70;99.90
10278;DHT22;5184;51.376;7.148;2023-04-06T14:25:46;11.60;99.90
10278;DHT22;5184;51.376;7.148;2023-04-06T14:28:13;11.70;99.90
10278;DHT22;5184;51.376;7.148;2023-04-06T14:30:40;11.70;99.90
10278;DHT22;5184;51.376;7.148;2023-04-06T14:33:07;11.90;99.90
10278;DHT22;5184;51.376;7.148;2023-04-06T14:35:33;11.90;99.90
10278;DHT22;5184;51.376;7.148;2023-04-06T14:38:01;11.90;99.90
10278;DHT22;5184;51.376;7.148;2023-04-06T14:40:29;11.80;99.90
10278;DHT22;5184;51.376;7.148;2023-04-06T14:42:56;11.80;99.90
10278;DHT22;5184;51.376;7.148;2023-04-06T14:45:22;11.90;99.90
10278;DHT22;5184;51.376;7.148;2023-04-06T14:47:49;11.80;99.90
10278;DHT22;5184;51.376;7.148;2023-04-06T14:50:16;11.70;1.00
10278;DHT22;5184;51.376;7.148;2023-04-06T14:52:43;11.60;1.00
10278;DHT22;5184;51.376;7.148;2023-04-06T14:55:11;11.60;1.00
10278;DHT22;5184;51.376;7.148;2023-04-06T14:57:38;11.60;1.00
10278;DHT22;5184;51.376;7.148;2023-04-06T15:05:24;11.50;1.00
10278;DHT22;5184;51.376;7.148;2023-04-06T15:07:51;11.60;1.00
10278;DHT22;5184;51.376;7.148;2023-04-06T15:10:18;11.60;1.00
10278;DHT22;5184;51.376;7.148;2023-04-06T15:12:46;11.50;1.00
10278;DHT22;5184;51.376;7.148;2023-04-06T15:15:12;11.50;1.00
10278;DHT22;5184;51.376;7.148;2023-04-06T15:17:39;11.50;1.00
10278;DHT22;5184;51.376;7.148;2023-04-06T15:20:06;11.50;1.00
10278;DHT22;5184;51.376;7.148;2023-04-06T15:22:32;11.50;1.00
10278;DHT22;5184;51.376;7.148;2023-04-06T15:24:59;11.40;1.00
10278;DHT22;5184;51.376;7.148;2023-04-06T15:27:25;11.40;1.00
10278;DHT22;5184;51.376;7.148;2023-04-06T15:29:52;11.20;1.00
10278;DHT22;5184;51.376;7.148;2023-04-06T15:32:19;11.20;1.00
10278;DHT22;5184;51.376;7.148;2023-04-06T15:34:45;11.20;1.00
10278;DHT22;5184;51.376;7.148;2023-04-06T15:37:13;11.10;1.00
10278;DHT22;5184;51.376;7.148;2023-04-06T15:39:40;11.00;1.00
10278;DHT22;5184;51.376;7.148;2023-04-06T15:42:07;10.90;1.00
10278;DHT22;5184;51.376;7.148;2023-04-06T15:44:35;10.80;1.00
10278;DHT22;5184;51.376;7.148;2023-04-06T15:47:02;10.80;1.00
10278;DHT22;5184;51.376;7.148;2023-04-06T15:49:29;10.70;1.00
10278;DHT22;5184;51.376;7.148;2023-04-06T15:51:56;10.70;1.00
10278;DHT22;5184;51.376;7.148;2023-04-06T15:54:23;10.70;26.60
10278;DHT22;5184;51.376;7.148;2023-04-06T15:56:49;10.50;99.90
10278;DHT22;5184;51.376;7.148;2023-04-06T15:59:16;10.30;1.00
10278;DHT22;5184;51.376;7.148;2023-04-06T16:01:42;10.10;80.40